createdAt,value
2023-03-08T00:01:30.909Z,11.77
2023-03-08T00:03:58.635Z,11.23
2023-03-08T00:06:26.300Z,9.70
2023-03-08T00:09:02.535Z,8.30
2023-03-08T00:11:30.192Z,8.63
2023-03-08T00:13:57.456Z,7.00
2023-03-08T00:16:24.146Z,8.80
2023-03-08T00:18:50.691Z,7.35
2023-03-08T00:21:18.755Z,9.23
2023-03-08T00:23:45.899Z,10.75
2023-03-08T00:26:13.061Z,7.60
2023-03-08T00:28:40.268Z,9.10
2023-03-08T00:31:10.461Z,6.10
2023-03-08T00:33:37.790Z,9.27
2023-03-08T00:36:11.785Z,8.75
2023-03-08T00:38:38.586Z,8.10
2023-03-08T00:41:05.293Z,7.65
2023-03-08T00:43:31.974Z,8.90
2023-03-08T00:45:58.550Z,10.13
2023-03-08T00:48:25.345Z,8.05
2023-03-08T00:50:52.487Z,8.90
2023-03-08T00:53:19.517Z,10.32
2023-03-08T00:55:50.563Z,10.43
2023-03-08T00:58:17.482Z,6.32
2023-03-08T01:00:44.632Z,9.48
2023-03-08T01:03:11.269Z,7.77
2023-03-08T01:05:46.049Z,8.73
2023-03-08T01:08:13.567Z,9.55
2023-03-08T01:10:40.642Z,7.53
2023-03-08T01:13:08.287Z,9.85
2023-03-08T01:15:38.821Z,8.73
2023-03-08T01:18:06.348Z,7.65
2023-03-08T01:20:33.659Z,7.72
2023-03-08T01:23:00.602Z,10.00
2023-03-08T01:25:27.316Z,7.38
2023-03-08T01:27:53.881Z,7.90
2023-03-08T01:30:20.609Z,7.32
2023-03-08T01:32:47.522Z,8.73
2023-03-08T01:35:14.192Z,9.70
2023-03-08T01:37:40.843Z,9.52
2023-03-08T01:40:08.425Z,9.27
2023-03-08T01:42:37.938Z,6.13
2023-03-08T01:45:27.024Z,8.60
2023-03-08T01:47:53.516Z,7.30
2023-03-08T01:50:20.829Z,6.35
2023-03-08T01:52:52.389Z,6.33
2023-03-08T01:55:19.538Z,7.45
2023-03-08T01:57:55.262Z,7.72
2023-03-08T02:00:26.903Z,8.52
2023-03-08T02:03:11.457Z,7.78
2023-03-08T02:05:41.936Z,11.63
2023-03-08T02:08:08.679Z,6.85
2023-03-08T02:10:37.122Z,5.35
2023-03-08T02:13:09.208Z,8.52
2023-03-08T02:15:36.152Z,5.97
2023-03-08T02:18:02.753Z,9.30
2023-03-08T02:20:32.840Z,8.52
2023-03-08T02:23:11.723Z,9.32
2023-03-08T02:25:38.714Z,11.15
2023-03-08T02:28:06.107Z,8.80
2023-03-08T02:30:35.786Z,8.50
2023-03-08T02:33:03.059Z,8.73
2023-03-08T02:35:30.169Z,8.70
2023-03-08T02:37:56.774Z,8.73
2023-03-08T02:40:23.368Z,7.40
2023-03-08T02:42:51.672Z,12.97
2023-03-08T02:45:19.794Z,10.55
2023-03-08T02:47:46.312Z,11.23
2023-03-08T02:50:12.821Z,8.80
2023-03-08T02:52:39.376Z,7.65
2023-03-08T02:55:06.782Z,7.17
2023-03-08T02:57:33.277Z,8.35
2023-03-08T02:59:59.901Z,11.43
2023-03-08T03:02:26.603Z,8.57
2023-03-08T03:04:53.163Z,7.85
2023-03-08T03:07:19.656Z,10.07
2023-03-08T03:09:46.158Z,8.43
2023-03-08T03:12:12.685Z,7.95
2023-03-08T03:14:39.214Z,10.15
2023-03-08T03:17:05.769Z,9.05
2023-03-08T03:19:32.397Z,7.87
2023-03-08T03:21:58.989Z,8.30
2023-03-08T03:24:25.564Z,7.97
2023-03-08T03:26:52.301Z,7.72
2023-03-08T03:29:18.926Z,10.10
2023-03-08T03:31:45.555Z,9.73
2023-03-08T03:34:12.183Z,8.88
2023-03-08T03:36:38.773Z,10.43
2023-03-08T03:39:05.371Z,8.77
2023-03-08T03:41:32.088Z,10.05
2023-03-08T03:43:59.111Z,10.27
2023-03-08T03:46:25.761Z,9.82
2023-03-08T03:48:52.399Z,8.43
2023-03-08T03:51:21.201Z,12.00
2023-03-08T03:53:48.235Z,8.07
2023-03-08T03:56:25.704Z,15.30
2023-03-08T03:58:52.777Z,10.55
2023-03-08T04:01:22.347Z,7.28
2023-03-08T04:03:49.427Z,12.18
2023-03-08T04:06:22.268Z,10.07
2023-03-08T04:08:51.703Z,8.77
2023-03-08T04:11:21.075Z,10.23
2023-03-08T04:13:48.019Z,8.50
2023-03-08T04:16:14.690Z,10.55
2023-03-08T04:18:41.325Z,9.70
2023-03-08T04:21:08.444Z,9.50
2023-03-08T04:23:35.706Z,8.93
2023-03-08T04:26:03.267Z,7.85
2023-03-08T04:28:30.134Z,8.75
2023-03-08T04:30:57.168Z,8.68
2023-03-08T04:33:24.195Z,8.87
2023-03-08T04:35:51.058Z,10.65
2023-03-08T04:38:18.561Z,6.97
2023-03-08T04:41:11.877Z,6.95
2023-03-08T04:43:40.188Z,10.55
2023-03-08T04:46:07.854Z,8.57
2023-03-08T04:48:34.426Z,11.38
2023-03-08T04:51:03.521Z,7.03
2023-03-08T04:53:30.812Z,8.10
2023-03-08T04:55:59.846Z,11.02
2023-03-08T04:58:28.044Z,6.83
2023-03-08T05:00:54.599Z,7.55
2023-03-08T05:03:21.329Z,7.10
2023-03-08T05:05:55.914Z,9.50
2023-03-08T05:08:23.666Z,10.82
2023-03-08T05:10:55.203Z,8.20
2023-03-08T05:13:21.814Z,8.77
2023-03-08T05:15:48.388Z,8.70
2023-03-08T05:18:15.027Z,10.45
2023-03-08T05:20:41.573Z,9.13
2023-03-08T05:23:08.106Z,10.73
2023-03-08T05:25:34.746Z,8.00
2023-03-08T05:28:01.279Z,9.38
2023-03-08T05:30:28.017Z,6.53
2023-03-08T05:32:54.638Z,7.93
2023-03-08T05:35:21.179Z,9.63
2023-03-08T05:37:47.709Z,6.65
2023-03-08T05:40:14.396Z,8.63
2023-03-08T05:42:40.982Z,9.77
2023-03-08T05:45:08.254Z,8.02
2023-03-08T05:47:34.877Z,8.43
2023-03-08T05:50:01.484Z,9.35
2023-03-08T05:52:29.889Z,9.45
2023-03-08T05:54:56.420Z,9.40
2023-03-08T05:57:22.956Z,9.85
2023-03-08T05:59:49.511Z,10.53
2023-03-08T06:02:16.257Z,12.27
2023-03-08T06:04:42.922Z,11.35
2023-03-08T06:07:09.476Z,10.18
2023-03-08T06:09:36.038Z,8.15
2023-03-08T06:12:02.547Z,9.10
2023-03-08T06:14:29.084Z,7.80
2023-03-08T06:16:55.633Z,7.22
2023-03-08T06:19:22.191Z,7.68
2023-03-08T06:21:48.752Z,9.18
2023-03-08T06:24:15.324Z,10.53
2023-03-08T06:26:41.892Z,8.13
2023-03-08T06:29:08.494Z,9.55
2023-03-08T06:31:35.028Z,7.05
2023-03-08T06:34:01.563Z,7.65
2023-03-08T06:36:28.173Z,8.57
2023-03-08T06:38:54.767Z,7.85
2023-03-08T06:41:21.816Z,6.47
2023-03-08T06:43:49.134Z,11.57
2023-03-08T06:46:18.359Z,6.70
2023-03-08T06:48:46.136Z,8.70
2023-03-08T06:51:12.804Z,11.07
2023-03-08T06:53:39.709Z,8.60
2023-03-08T06:56:07.864Z,12.48
2023-03-08T06:58:36.635Z,8.82
2023-03-08T07:01:06.735Z,8.53
2023-03-08T07:03:34.045Z,9.25
2023-03-08T07:06:08.490Z,7.25
2023-03-08T07:08:36.499Z,14.93
2023-03-08T07:11:03.157Z,9.25
2023-03-08T07:13:29.863Z,12.20
2023-03-08T07:15:57.088Z,9.18
2023-03-08T07:18:24.399Z,9.27
2023-03-08T07:20:56.645Z,8.23
2023-03-08T07:23:23.593Z,12.32
2023-03-08T07:25:50.556Z,7.93
2023-03-08T07:28:17.158Z,8.88
2023-03-08T07:30:48.803Z,6.03
2023-03-08T07:33:15.827Z,10.20
2023-03-08T07:35:42.405Z,8.88
2023-03-08T07:38:09.137Z,7.17
2023-03-08T07:40:35.718Z,6.10
2023-03-08T07:43:05.142Z,8.63
2023-03-08T07:45:32.072Z,7.95
2023-03-08T07:47:59.207Z,6.13
2023-03-08T07:50:25.945Z,8.93
2023-03-08T07:52:52.499Z,8.25
2023-03-08T07:55:19.187Z,7.53
2023-03-08T07:57:45.790Z,7.88
2023-03-08T08:00:12.724Z,8.63
2023-03-08T08:02:39.692Z,6.20
2023-03-08T08:05:06.640Z,9.93
2023-03-08T08:07:33.349Z,7.30
2023-03-08T08:09:59.935Z,7.45
2023-03-08T08:12:26.473Z,7.07
2023-03-08T08:14:53.454Z,8.00
2023-03-08T08:17:21.221Z,9.07
2023-03-08T08:19:48.487Z,6.80
2023-03-08T08:22:15.478Z,8.93
2023-03-08T08:24:42.183Z,9.32
2023-03-08T08:27:08.716Z,5.37
2023-03-08T08:29:36.556Z,5.53
2023-03-08T08:32:04.286Z,6.85
2023-03-08T08:34:30.893Z,5.57
2023-03-08T08:36:57.390Z,9.13
2023-03-08T08:39:24.032Z,6.40
2023-03-08T08:41:50.739Z,3.88
2023-03-08T08:44:17.346Z,7.53
2023-03-08T08:46:43.897Z,4.70
2023-03-08T08:49:10.917Z,7.35
2023-03-08T08:51:37.557Z,8.03
2023-03-08T08:54:04.355Z,5.63
2023-03-08T08:56:30.976Z,8.77
2023-03-08T08:59:00.435Z,6.72
2023-03-08T09:01:32.676Z,7.45
2023-03-08T09:03:59.874Z,7.43
2023-03-08T09:06:27.906Z,10.88
2023-03-08T09:08:57.258Z,5.78
2023-03-08T09:11:25.196Z,6.57
2023-03-08T09:13:52.461Z,9.50
2023-03-08T09:16:22.112Z,5.10
2023-03-08T09:18:49.200Z,7.07
2023-03-08T09:21:16.479Z,5.82
2023-03-08T09:23:43.315Z,9.75
2023-03-08T09:26:10.422Z,5.53
2023-03-08T09:28:37.307Z,8.70
2023-03-08T09:31:14.903Z,11.00
2023-03-08T09:33:47.310Z,7.75
2023-03-08T09:36:14.304Z,8.35
2023-03-08T09:38:41.005Z,5.10
2023-03-08T09:41:21.583Z,6.07
2023-03-08T09:44:25.079Z,6.75
2023-03-08T09:46:58.541Z,6.40
2023-03-08T09:49:31.297Z,8.30
2023-03-08T09:52:35.325Z,6.60
2023-03-08T09:55:04.453Z,4.33
2023-03-08T09:57:37.860Z,5.63
2023-03-08T10:00:09.423Z,6.93
2023-03-08T10:02:53.428Z,5.78
2023-03-08T10:05:49.795Z,7.68
2023-03-08T10:08:16.254Z,5.43
2023-03-08T10:11:00.459Z,5.05
2023-03-08T10:13:36.384Z,7.15
2023-03-08T10:16:05.536Z,3.75
2023-03-08T10:18:47.269Z,7.70
2023-03-08T10:21:17.745Z,6.37
2023-03-08T10:23:59.020Z,6.47
2023-03-08T10:26:27.016Z,8.40
2023-03-08T10:28:53.701Z,5.85
2023-03-08T10:31:22.663Z,5.28
2023-03-08T10:33:53.651Z,4.30
2023-03-08T10:36:25.328Z,5.30
2023-03-08T10:39:04.559Z,3.08
2023-03-08T10:41:36.695Z,3.95
2023-03-08T10:44:04.057Z,3.20
2023-03-08T10:46:32.971Z,2.20
2023-03-08T10:49:14.827Z,3.75
2023-03-08T10:51:56.144Z,2.47
2023-03-08T10:54:22.789Z,3.28
2023-03-08T10:59:54.199Z,2.70
2023-03-08T11:02:22.744Z,2.60
2023-03-08T11:04:57.672Z,2.80
2023-03-08T11:07:30.605Z,3.50
2023-03-08T11:10:18.418Z,2.92
2023-03-08T11:12:45.873Z,4.37
2023-03-08T11:15:18.334Z,2.63
2023-03-08T11:17:59.528Z,4.53
2023-03-08T11:20:34.325Z,4.32
2023-03-08T11:23:44.757Z,3.97
2023-03-08T11:26:35.392Z,5.00
2023-03-08T11:29:10.424Z,7.00
2023-03-08T11:31:50.675Z,3.88
2023-03-08T11:34:31.250Z,4.57
2023-03-08T11:37:10.960Z,6.13
2023-03-08T11:39:54.947Z,5.50
2023-03-08T11:43:06.533Z,7.18
2023-03-08T11:45:53.840Z,4.78
2023-03-08T11:48:23.497Z,5.97
2023-03-08T11:50:58.652Z,6.30
2023-03-08T11:53:45.959Z,6.33
2023-03-08T11:56:27.286Z,5.82
2023-03-08T11:59:02.216Z,9.05
2023-03-08T12:02:03.087Z,6.20
2023-03-08T12:04:43.966Z,8.55
2023-03-08T12:07:21.266Z,8.97
2023-03-08T12:09:55.530Z,11.93
2023-03-08T12:12:27.596Z,11.95
2023-03-08T12:15:00.080Z,9.35
2023-03-08T12:17:40.065Z,11.38
2023-03-08T12:20:20.177Z,9.43
2023-03-08T12:23:05.430Z,12.07
2023-03-08T12:25:39.916Z,10.38
2023-03-08T12:28:38.901Z,9.60
2023-03-08T12:31:29.521Z,14.02
2023-03-08T12:33:58.894Z,11.13
2023-03-08T12:36:43.269Z,13.13
2023-03-08T12:39:26.325Z,13.55
2023-03-08T12:42:02.519Z,13.80
2023-03-08T12:44:30.699Z,10.70
2023-03-08T12:47:18.386Z,10.57
2023-03-08T12:49:50.059Z,11.00
2023-03-08T12:52:19.596Z,11.15
2023-03-08T12:55:19.308Z,9.82
2023-03-08T12:57:53.178Z,13.57
2023-03-08T13:00:19.631Z,13.47
2023-03-08T13:02:46.472Z,8.95
2023-03-08T13:05:19.222Z,8.15
2023-03-08T13:08:16.385Z,7.18
2023-03-08T13:10:49.136Z,8.23
2023-03-08T13:13:43.522Z,7.40
2023-03-08T13:16:16.162Z,10.95
2023-03-08T13:18:45.405Z,11.10
2023-03-08T13:21:35.246Z,6.85
2023-03-08T13:24:01.909Z,7.53
2023-03-08T13:26:49.839Z,7.47
2023-03-08T13:29:20.493Z,6.75
2023-03-08T13:31:48.660Z,6.38
2023-03-08T13:34:31.175Z,7.18
2023-03-08T13:36:58.406Z,7.20
2023-03-08T13:39:27.801Z,5.33
2023-03-08T13:42:06.254Z,10.80
2023-03-08T13:44:33.521Z,7.15
2023-03-08T13:47:20.091Z,8.80
2023-03-08T13:49:47.308Z,8.45
2023-03-08T13:52:18.037Z,6.77
2023-03-08T13:54:53.046Z,6.13
2023-03-08T13:57:30.378Z,6.13
2023-03-08T14:00:00.181Z,10.85
2023-03-08T14:02:32.364Z,7.97
2023-03-08T14:04:59.650Z,6.50
2023-03-08T14:07:28.987Z,9.70
2023-03-08T14:09:56.852Z,7.95
2023-03-08T14:12:27.784Z,9.32
2023-03-08T14:15:01.145Z,8.82
2023-03-08T14:17:32.527Z,10.70
2023-03-08T14:20:14.058Z,6.47
2023-03-08T14:22:40.729Z,7.93
2023-03-08T14:25:22.557Z,7.82
2023-03-08T14:27:50.759Z,10.77
2023-03-08T14:30:21.750Z,10.97
2023-03-08T14:33:02.606Z,9.68
2023-03-08T14:35:38.547Z,11.65
2023-03-08T14:38:33.650Z,10.23
2023-03-08T14:41:06.351Z,10.13
2023-03-08T14:43:33.137Z,10.80
2023-03-08T14:46:03.324Z,10.55
2023-03-08T14:48:31.137Z,12.55
2023-03-08T14:51:03.493Z,10.57
2023-03-08T14:53:41.372Z,11.90
2023-03-08T14:56:16.630Z,8.40
2023-03-08T14:58:46.819Z,10.82
2023-03-08T15:01:23.870Z,9.52
2023-03-08T15:03:50.717Z,13.35
2023-03-08T15:06:23.776Z,10.35
2023-03-08T15:08:50.718Z,21.07
2023-03-08T15:11:17.533Z,16.00
2023-03-08T15:13:46.032Z,15.07
2023-03-08T15:16:14.527Z,11.18
2023-03-08T15:18:42.639Z,14.00
2023-03-08T15:21:20.258Z,12.97
2023-03-08T15:23:47.818Z,15.95
2023-03-08T15:26:20.885Z,15.93
2023-03-08T15:28:47.522Z,17.92
2023-03-08T15:31:14.378Z,15.13
2023-03-08T15:33:41.082Z,11.93
2023-03-08T15:36:12.998Z,12.82
2023-03-08T15:38:39.533Z,12.05
2023-03-08T15:41:06.194Z,12.25
2023-03-08T15:43:33.306Z,13.40
2023-03-08T15:45:59.989Z,16.47
2023-03-08T15:48:26.519Z,14.43
2023-03-08T15:50:53.127Z,18.30
2023-03-08T15:53:33.240Z,13.52
2023-03-08T15:56:01.329Z,10.23
2023-03-08T15:58:27.914Z,14.80
2023-03-08T16:00:54.525Z,13.55
2023-03-08T16:03:26.025Z,13.15
2023-03-08T16:05:53.137Z,16.98
2023-03-08T16:08:20.442Z,19.63
2023-03-08T16:10:46.987Z,16.33
2023-03-08T16:13:13.766Z,17.20
2023-03-08T16:15:41.521Z,21.80
2023-03-08T16:18:08.212Z,14.98
2023-03-08T16:20:34.818Z,16.40
2023-03-08T16:23:01.557Z,12.63
2023-03-08T16:25:28.212Z,12.00
2023-03-08T16:27:54.981Z,20.52
2023-03-08T16:30:21.972Z,27.85
2023-03-08T16:32:53.386Z,16.17
2023-03-08T16:35:21.103Z,14.97
2023-03-08T16:37:47.773Z,12.73
2023-03-08T16:40:15.503Z,12.75
2023-03-08T16:42:42.477Z,13.57
2023-03-08T16:45:09.737Z,13.07
2023-03-08T16:47:36.541Z,14.87
2023-03-08T16:50:04.078Z,12.88
2023-03-08T16:52:30.788Z,13.57
2023-03-08T16:54:57.529Z,10.15
2023-03-08T16:57:24.185Z,13.93
2023-03-08T16:59:50.723Z,11.90
2023-03-08T17:02:20.590Z,13.20
2023-03-08T17:04:48.715Z,15.20
2023-03-08T17:07:16.516Z,13.10
2023-03-08T17:09:43.101Z,12.88
2023-03-08T17:12:10.211Z,10.00
2023-03-08T17:14:37.259Z,20.83
2023-03-08T17:17:04.968Z,12.82
2023-03-08T17:19:31.989Z,13.38
2023-03-08T17:21:58.789Z,10.15
2023-03-08T17:24:28.100Z,11.63
2023-03-08T17:26:55.125Z,11.07
2023-03-08T17:29:22.675Z,14.95
2023-03-08T17:31:49.734Z,12.43
2023-03-08T17:34:17.422Z,11.80
2023-03-08T17:36:46.660Z,8.67
2023-03-08T17:39:14.257Z,7.35
2023-03-08T17:41:42.954Z,9.32
2023-03-08T17:44:09.637Z,11.40
2023-03-08T17:46:36.287Z,7.25
2023-03-08T17:49:02.966Z,8.33
2023-03-08T17:51:31.512Z,9.30
2023-03-08T17:53:58.775Z,9.20
2023-03-08T17:56:29.422Z,7.25
2023-03-08T17:58:58.617Z,13.50
2023-03-08T18:01:28.650Z,7.07
2023-03-08T18:03:57.632Z,6.53
2023-03-08T18:06:42.431Z,4.75
2023-03-08T18:09:15.229Z,5.30
2023-03-08T18:11:43.576Z,6.03
2023-03-08T18:14:12.847Z,5.30
2023-03-08T18:16:40.781Z,5.75
2023-03-08T18:19:07.546Z,5.72
2023-03-08T18:21:36.287Z,6.97
2023-03-08T18:24:03.033Z,15.38
2023-03-08T18:26:29.627Z,7.77
2023-03-08T18:28:59.294Z,7.53
2023-03-08T18:31:26.815Z,8.23
2023-03-08T18:33:54.931Z,11.43
2023-03-08T18:36:22.996Z,11.50
2023-03-08T18:38:49.689Z,11.87
2023-03-08T18:41:27.260Z,18.95
2023-03-08T18:43:55.129Z,11.55
2023-03-08T18:46:31.968Z,11.70
2023-03-08T18:49:04.309Z,14.85
2023-03-08T18:51:32.371Z,15.50
2023-03-08T18:53:59.793Z,11.73
2023-03-08T18:56:27.432Z,16.30
2023-03-08T18:58:55.638Z,13.60
2023-03-08T19:01:22.463Z,16.30
2023-03-08T19:03:49.002Z,16.90
2023-03-08T19:06:16.933Z,13.45
2023-03-08T19:08:43.572Z,14.75
2023-03-08T19:11:18.651Z,12.38
2023-03-08T19:13:45.779Z,18.65
2023-03-08T19:16:26.344Z,14.23
2023-03-08T19:18:55.820Z,19.13
2023-03-08T19:21:25.457Z,15.45
2023-03-08T19:23:55.781Z,17.73
2023-03-08T19:26:37.118Z,17.52
2023-03-08T19:29:12.910Z,14.77
2023-03-08T19:31:51.852Z,14.90
2023-03-08T19:34:20.688Z,17.48
2023-03-08T19:36:48.747Z,18.08
2023-03-08T19:39:21.567Z,15.32
2023-03-08T19:41:49.987Z,15.20
2023-03-08T19:44:17.058Z,18.67
2023-03-08T19:46:44.021Z,20.00
2023-03-08T19:49:16.958Z,17.55
2023-03-08T19:51:47.830Z,16.90
2023-03-08T19:54:14.847Z,17.27
2023-03-08T19:56:41.610Z,17.50
2023-03-08T19:59:08.580Z,18.05
2023-03-08T20:01:35.641Z,18.98
2023-03-08T20:04:02.251Z,17.60
2023-03-08T20:06:31.981Z,17.37
2023-03-08T20:08:59.811Z,28.48
2023-03-08T20:11:26.675Z,25.02
2023-03-08T20:13:53.226Z,21.55
2023-03-08T20:16:20.843Z,21.40
2023-03-08T20:18:49.331Z,29.00
2023-03-08T20:21:17.781Z,31.23
2023-03-08T20:23:45.851Z,24.48
2023-03-08T20:26:13.392Z,20.90
2023-03-08T20:28:39.973Z,30.77
2023-03-08T20:31:11.461Z,19.60
2023-03-08T20:33:38.193Z,22.70
2023-03-08T20:36:08.081Z,19.83
2023-03-08T20:38:41.490Z,20.77
2023-03-08T20:41:18.196Z,19.02
2023-03-08T20:43:47.082Z,24.83
2023-03-08T20:46:16.854Z,22.58
2023-03-08T20:48:45.624Z,26.48
2023-03-08T20:51:14.847Z,25.23
2023-03-08T20:53:42.034Z,24.42
2023-03-08T20:56:16.320Z,24.53
2023-03-08T20:58:45.157Z,19.90
2023-03-08T21:01:14.577Z,21.80
2023-03-08T21:03:41.814Z,24.50
2023-03-08T21:06:27.047Z,26.15
2023-03-08T21:08:54.350Z,26.87
2023-03-08T21:11:22.065Z,26.60
2023-03-08T21:13:49.812Z,30.85
2023-03-08T21:16:18.652Z,26.40
2023-03-08T21:18:49.589Z,30.30
2023-03-08T21:21:34.169Z,21.30
2023-03-08T21:24:05.830Z,46.72
2023-03-08T21:26:32.890Z,33.22
2023-03-08T21:29:02.318Z,40.88
2023-03-08T21:31:31.849Z,28.30
2023-03-08T21:34:01.544Z,29.30
2023-03-08T21:36:28.946Z,34.90
2023-03-08T21:38:57.674Z,40.35
2023-03-08T21:41:29.990Z,24.25
2023-03-08T21:43:58.415Z,27.38
2023-03-08T21:46:25.658Z,27.03
2023-03-08T21:48:52.727Z,36.40
2023-03-08T21:51:19.228Z,27.65
2023-03-08T21:53:45.833Z,29.73
2023-03-08T21:56:14.718Z,29.02
2023-03-08T21:58:41.647Z,32.30
2023-03-08T22:01:24.637Z,36.60
2023-03-08T22:03:52.156Z,33.65
2023-03-08T22:06:19.123Z,38.85
2023-03-08T22:08:45.884Z,37.00
2023-03-08T22:11:12.945Z,42.17
2023-03-08T22:13:39.684Z,35.95
2023-03-08T22:16:08.126Z,36.67
2023-03-08T22:18:34.782Z,37.80
2023-03-08T22:21:01.458Z,52.03
2023-03-08T22:23:28.190Z,41.87
2023-03-08T22:25:55.174Z,39.17
2023-03-08T22:28:21.873Z,37.38
2023-03-08T22:30:48.681Z,37.97
2023-03-08T22:33:16.922Z,32.90
2023-03-08T22:35:48.290Z,32.10
2023-03-08T22:38:18.237Z,33.88
2023-03-08T22:40:45.467Z,33.95
2023-03-08T22:43:12.157Z,37.95
2023-03-08T22:45:38.767Z,39.25
2023-03-08T22:48:06.914Z,34.23
2023-03-08T22:50:33.508Z,38.25
2023-03-08T22:53:00.110Z,33.08
2023-03-08T22:55:26.712Z,43.95
2023-03-08T22:57:53.245Z,55.90
2023-03-08T23:00:20.627Z,36.83
2023-03-08T23:02:48.553Z,33.83
2023-03-08T23:05:17.461Z,31.60
2023-03-08T23:07:44.087Z,32.75
2023-03-08T23:10:11.750Z,33.72
2023-03-08T23:12:38.404Z,31.73
2023-03-08T23:15:05.826Z,30.90
2023-03-08T23:17:32.479Z,30.55
2023-03-08T23:19:59.236Z,30.65
2023-03-08T23:22:26.110Z,33.28
2023-03-08T23:24:52.665Z,32.73
2023-03-08T23:27:19.833Z,23.58
2023-03-08T23:29:46.400Z,37.90
2023-03-08T23:32:13.081Z,45.13
2023-03-08T23:34:39.692Z,36.28
2023-03-08T23:37:06.270Z,38.77
2023-03-08T23:39:34.063Z,38.17
2023-03-08T23:42:01.146Z,33.67
2023-03-08T23:44:27.715Z,38.72
2023-03-08T23:46:54.254Z,31.65
2023-03-08T23:49:21.060Z,31.80
2023-03-08T23:51:47.665Z,31.52
2023-03-08T23:54:14.450Z,44.03
2023-03-08T23:56:41.161Z,38.50
2023-03-08T23:59:12.289Z,33.60
